Airfield :
LOGIN :

Register | Disclaimer

   EN    FR    IT 

 










Legend :    VFR   Marginal VFR   IFR   Intensive IFR   Very Intensive IFR
Visi :
Ceiling :
>= 8 km
>= 3000ft
5 to 8 km
1000 to 3000 ft
1500m to 5 km
500 to 1000 ft
800 to 1500m
200 to 500 ft
< 800m
< 200 ft
Symbols :   Thunderstorms  Fog  Heavy snow  Heavy precipitations  Wind > 20 kt
SIGMETs :     Misc.  Thunderstorms  Icing  Turbulence  Mountain Waves  Volcanic Ashes







- Airport Elevation : 325 ft
- IATA code : BES
- Download approach charts


LFRB - Brest

CURRENT METAR :
  • 160500Z AUTO 18010KT 1200 1100 R25/P2000 R07/1400D BR VV/// 10/10 Q1024 TEMPO 0500 FG

EXPIRED METARs :
  • 160430Z AUTO 19010KT 1700 1300 R25/P2000 R07/P2000 -DZ BR VV/// 10/10 Q1024 TEMPO 0500 FG
  • 160400Z AUTO 19008KT 2000 BR OVC002 10/09 Q1024 TEMPO 0500 FG VV///
  • 160330Z AUTO 18009KT 2100 -DZ BR OVC002 10/09 Q1024 TEMPO 0500 FG VV///
  • 160300Z AUTO 18009KT 2700 -DZ BR OVC002 09/09 Q1024 TEMPO 0500 FG VV///
  • 160230Z AUTO 17007KT 2700 BR OVC002 09/09 Q1024 TEMPO 0500 FG VV///

TAF AMD TAF LFRB
Valid from the 16 at 01:00 until the 17 at 06:00 UTC


160123Z 1601/1706 17010KT 3000 BR BKN003
PROB40
TEMPO 1602/1607 0500 FG VV///
BECMG 1610/1612 6000 NSW SCT020 SCT040
BECMG 1621/1624 15012G25KT
ATIS : +33 2 98 32 02 71
No reported NOTAMs for that airfield.



MET'MAP, your aeronautical weather chart ! - Copyright ORBIFLY December 2007 - Disclaimer

ORBIFLY MET'MAP TEAM :

Programming & Development : Alexandra Zaïnal
Concept & Development : Baudouin d'Aumeries
Co-Development & Prog : Marc-Olivier Méhu
Technical & hardware support : Manuel Goepfert

Contact : metmap@orbifly.com




SOURCES & CREDITS :

   NOAA